Time;durP1;ratioP1;P1;durP2;ratioP2;P2;SDS_P1;SDS_P2;PMS_P1;PMS_P2;Temp;Humidity;BMP_temperature;BMP_pressure;BME280_temperature;BME280_humidity;BME280_pressure;Samples;Min_cycle;Max_cycle;Signal;HPM_P1;HPM_P2
2022/05/16 00:02:26;;;;;;;12.68;10.32;;;;;;;18.26;nan;95415.16;4979257;28;20200;-69
2022/05/16 00:04:52;;;;;;;10.68;9.63;;;;;;;18.28;nan;95393.56;4981137;28;20197;-69
2022/05/16 00:07:20;;;;;;;11.18;10.10;;;;;;;18.30;nan;95393.47;4980209;28;20706;-69
2022/05/16 00:09:48;;;;;;;12.25;9.68;;;;;;;18.46;nan;95398.53;4980979;28;20377;-70
2022/05/16 00:12:15;;;;;;;11.00;10.13;;;;;;;18.54;nan;95398.94;4981035;28;20240;-69
2022/05/16 00:14:44;;;;;;;11.43;10.30;;;;;;;18.52;nan;95393.03;4983004;28;20208;-69
2022/05/16 00:17:13;;;;;;;10.70;9.60;;;;;;;17.63;nan;95395.53;4981697;28;20208;-69
2022/05/16 00:19:41;;;;;;;12.23;10.02;;;;;;;17.13;nan;95392.34;4984436;28;20707;-69
2022/05/16 00:22:09;;;;;;;15.50;10.32;;;;;;;16.56;nan;95400.47;4985468;28;20208;-70
2022/05/16 00:24:36;;;;;;;11.57;10.40;;;;;;;15.95;nan;95397.56;4985438;28;20209;-71
2022/05/16 00:27:03;;;;;;;15.00;10.90;;;;;;;15.50;nan;95395.47;4984652;28;20868;-70
2022/05/16 00:29:30;;;;;;;13.32;10.35;;;;;;;15.17;nan;95392.75;4982985;28;20246;-70
2022/05/16 00:31:57;;;;;;;11.55;10.48;;;;;;;15.28;nan;95400.78;4984088;28;20197;-69
2022/05/16 00:34:25;;;;;;;11.93;10.75;;;;;;;15.67;nan;95399.81;4985278;28;20865;-70
2022/05/16 00:36:52;;;;;;;15.35;12.57;;;;;;;15.90;nan;95384.16;4982712;28;20200;-69
2022/05/16 00:39:21;;;;;;;12.52;11.23;;;;;;;16.52;nan;95398.13;4985796;28;20235;-69
2022/05/16 00:41:49;;;;;;;10.75;9.85;;;;;;;16.45;nan;95396.78;4983813;28;20229;-70
2022/05/16 00:44:17;;;;;;;10.85;9.85;;;;;;;16.77;nan;95390.03;4982419;28;20204;-68
2022/05/16 00:46:44;;;;;;;10.82;9.77;;;;;;;16.89;nan;95397.88;4984326;28;21048;-70
2022/05/16 00:49:17;;;;;;;11.95;10.73;;;;;;;17.07;nan;95390.97;4983083;28;20232;-70
2022/05/16 00:51:49;;;;;;;12.13;10.85;;;;;;;16.97;nan;95394.94;4984533;28;20215;-69
2022/05/16 00:54:20;;;;;;;10.57;9.77;;;;;;;17.13;nan;95397.50;4984893;28;20204;-70
2022/05/16 00:56:50;;;;;;;10.98;9.93;;;;;;;17.09;nan;95391.69;4985120;28;20284;-69
2022/05/16 00:59:18;;;;;;;11.10;9.98;;;;;;;17.11;nan;95379.59;4983245;28;20637;-69
2022/05/16 01:07:15;;;;;;;12.93;10.18;;;;;;;17.24;nan;95390.88;4980601;28;21081;-69
2022/05/16 01:09:42;;;;;;;15.32;10.23;;;;;;;16.92;nan;95387.47;4982957;28;20282;-69
2022/05/16 01:12:10;;;;;;;16.00;10.55;;;;;;;16.80;nan;95393.25;4977830;28;20759;-69
2022/05/16 01:14:42;;;;;;;11.10;9.85;;;;;;;17.19;nan;95392.03;4979920;28;20204;-69
2022/05/16 01:17:09;;;;;;;10.73;9.68;;;;;;;17.56;nan;95389.13;4982770;28;20205;-69
2022/05/16 01:19:36;;;;;;;12.40;10.23;;;;;;;17.63;nan;95382.69;4976948;28;20685;-69
2022/05/16 01:22:09;;;;;;;12.50;9.10;;;;;;;17.35;nan;95388.53;4978156;28;20208;-69
2022/05/16 01:24:37;;;;;;;10.65;9.70;;;;;;;17.21;nan;95392.78;4980590;28;20737;-70
2022/05/16 01:27:04;;;;;;;9.73;8.93;;;;;;;17.39;nan;95380.66;4982633;28;20208;-70
2022/05/16 01:29:30;;;;;;;11.38;10.10;;;;;;;17.56;nan;95394.25;4981181;28;20326;-69
2022/05/16 01:31:57;;;;;;;10.98;9.68;;;;;;;17.49;nan;95386.97;4978043;28;20275;-69
2022/05/16 01:34:24;;;;;;;11.60;10.57;;;;;;;17.59;nan;95386.34;4983445;28;20683;-70
2022/05/16 01:36:51;;;;;;;11.20;10.07;;;;;;;17.67;nan;95396.25;4976978;28;20215;-69
2022/05/16 01:39:18;;;;;;;14.40;10.48;;;;;;;17.66;nan;95380.00;4982377;28;20262;-69
2022/05/16 01:41:46;;;;;;;11.65;10.35;;;;;;;17.46;nan;95390.53;4983869;28;20313;-68
2022/05/16 01:44:19;;;;;;;11.25;10.25;;;;;;;17.47;nan;95386.22;4984077;28;20258;-72
2022/05/16 01:46:46;;;;;;;11.35;10.20;;;;;;;17.19;nan;95392.03;4984950;28;20627;-73
2022/05/16 01:49:16;;;;;;;10.93;9.95;;;;;;;16.94;nan;95395.09;4984317;28;20208;-70
2022/05/16 01:51:43;;;;;;;13.95;9.88;;;;;;;16.83;nan;95402.50;4985534;28;20205;-73
2022/05/16 01:54:10;;;;;;;11.07;10.15;;;;;;;16.63;nan;95386.41;4982430;28;20773;-72
2022/05/16 01:56:38;;;;;;;11.10;10.07;;;;;;;16.68;nan;95399.00;4983688;28;20481;-71
2022/05/16 01:59:07;;;;;;;10.98;9.98;;;;;;;16.62;nan;95396.72;4975718;28;20683;-71
2022/05/16 02:01:34;;;;;;;10.20;9.23;;;;;;;16.63;nan;95396.69;4977144;28;20199;-71
2022/05/16 02:04:01;;;;;;;11.57;9.57;;;;;;;16.48;nan;95392.31;4980847;28;20220;-72
2022/05/16 02:06:28;;;;;;;11.38;10.30;;;;;;;16.16;nan;95400.81;4978730;28;20463;-72
2022/05/16 02:08:55;;;;;;;14.55;10.20;;;;;;;15.93;nan;95405.34;4979725;28;20213;-71
2022/05/16 02:11:22;;;;;;;14.77;10.77;;;;;;;15.37;nan;95392.66;4978272;28;20231;-72
2022/05/16 02:13:49;;;;;;;11.23;10.27;;;;;;;15.12;nan;95403.19;4978200;28;20205;-71
2022/05/16 02:16:17;;;;;;;12.35;10.77;;;;;;;14.94;nan;95396.38;4979482;28;20201;-71
2022/05/16 02:18:44;;;;;;;11.43;10.45;;;;;;;14.71;nan;95394.84;4981382;28;20251;-72
2022/05/16 02:26:46;;;;;;;11.50;10.52;;;;;;;15.01;nan;95396.94;4981892;28;20207;-72
2022/05/16 02:29:14;;;;;;;12.00;9.98;;;;;;;15.10;nan;95399.03;4981397;28;20237;-71
2022/05/16 02:31:42;;;;;;;10.27;9.50;;;;;;;15.15;nan;95399.66;4981746;28;20749;-72
2022/05/16 02:34:09;;;;;;;11.30;10.23;;;;;;;14.75;nan;95401.47;4980724;28;20606;-73
2022/05/16 02:36:36;;;;;;;11.43;10.32;;;;;;;14.67;nan;95397.59;4979549;28;20638;-71
2022/05/16 02:39:04;;;;;;;11.77;10.93;;;;;;;14.41;nan;95393.63;4985679;28;20227;-72
2022/05/16 02:41:30;;;;;;;11.85;10.45;;;;;;;14.47;nan;95395.91;4984968;28;20972;-72
2022/05/16 02:43:57;;;;;;;13.05;11.40;;;;;;;14.35;nan;95392.16;4982174;28;20683;-71
2022/05/16 02:46:24;;;;;;;11.38;10.25;;;;;;;14.52;nan;95399.94;4983375;28;20262;-71
2022/05/16 02:48:52;;;;;;;13.10;11.10;;;;;;;14.62;nan;95397.78;4983032;28;20200;-73
2022/05/16 02:51:19;;;;;;;11.57;10.38;;;;;;;14.73;nan;95393.03;4982865;28;21379;-71
2022/05/16 02:53:46;;;;;;;13.48;10.68;;;;;;;14.96;nan;95395.41;4982686;28;20295;-72
2022/05/16 02:56:13;;;;;;;12.38;10.98;;;;;;;15.16;nan;95394.47;4982897;28;20208;-73
2022/05/16 02:58:40;;;;;;;10.65;9.75;;;;;;;15.16;nan;95378.28;4984343;28;20201;-72
2022/05/16 03:01:08;;;;;;;11.27;10.23;;;;;;;15.15;nan;95394.56;4981899;28;20486;-71
2022/05/16 03:03:35;;;;;;;10.02;9.13;;;;;;;15.25;nan;95395.81;4982408;28;20871;-72
2022/05/16 03:06:04;;;;;;;15.05;9.73;;;;;;;15.32;nan;95400.56;4983368;28;20200;-71
2022/05/16 03:08:30;;;;;;;11.65;10.48;;;;;;;15.24;nan;95402.66;4984026;28;20204;-72
2022/05/16 03:10:58;;;;;;;10.57;9.65;;;;;;;15.10;nan;95401.59;4984310;28;21576;-72
2022/05/16 03:13:25;;;;;;;10.85;9.85;;;;;;;15.24;nan;95404.38;4983391;28;20208;-72
2022/05/16 03:15:52;;;;;;;12.10;9.25;;;;;;;15.31;nan;95413.44;4984582;28;20201;-72
2022/05/16 03:18:19;;;;;;;14.43;10.27;;;;;;;15.31;nan;95410.88;4983641;28;21281;-72
2022/05/16 03:20:46;;;;;;;12.23;10.18;;;;;;;15.32;nan;95412.53;4980825;28;20468;-72
2022/05/16 03:23:14;;;;;;;13.35;9.77;;;;;;;15.28;nan;95411.84;4981270;28;20208;-72
2022/05/16 03:25:41;;;;;;;10.95;9.82;;;;;;;15.19;nan;95421.69;4980488;28;20206;-73
2022/05/16 03:28:08;;;;;;;9.43;8.65;;;;;;;15.33;nan;95419.31;4981468;28;20204;-73
2022/05/16 03:30:35;;;;;;;13.82;9.25;;;;;;;15.35;nan;95419.22;4980761;28;20754;-73
2022/05/16 03:33:03;;;;;;;12.93;9.75;;;;;;;15.54;nan;95428.56;4982038;28;20208;-72
2022/05/16 03:35:30;;;;;;;12.43;8.90;;;;;;;15.61;nan;95435.06;4984445;28;20227;-72
2022/05/16 03:37:57;;;;;;;13.48;9.63;;;;;;;15.15;nan;95431.22;4985162;28;20291;-73
2022/05/16 03:40:42;;;;;;;16.02;9.82;;;;;;;14.92;nan;95434.00;4981897;28;20208;-71
2022/05/16 03:43:09;;;;;;;9.82;9.02;;;;;;;15.19;nan;95431.91;4983059;28;20873;-72
2022/05/16 03:45:36;;;;;;;9.80;8.73;;;;;;;15.42;nan;95434.25;4981863;28;20223;-72
2022/05/16 03:48:04;;;;;;;10.20;9.25;;;;;;;15.51;nan;95440.69;4984405;28;20266;-71
2022/05/16 03:50:30;;;;;;;12.55;10.63;;;;;;;16.03;nan;95440.78;4982458;28;20251;-72
2022/05/16 03:52:59;;;;;;;11.70;9.68;;;;;;;16.50;nan;95446.13;4984736;28;20204;-72
2022/05/16 03:55:29;;;;;;;11.90;10.30;;;;;;;16.79;nan;95432.66;4986664;28;20200;-73
2022/05/16 03:57:56;;;;;;;12.73;11.43;;;;;;;16.98;nan;95453.91;4987983;28;20704;-74
2022/05/16 04:00:23;;;;;;;11.85;10.70;;;;;;;17.04;nan;95452.75;4985746;28;20600;-74
2022/05/16 04:02:51;;;;;;;13.20;11.70;;;;;;;17.08;nan;95463.66;4986890;28;20228;-72
2022/05/16 04:05:20;;;;;;;15.07;11.95;;;;;;;17.25;nan;95458.50;4987199;28;20232;-73
2022/05/16 04:07:47;;;;;;;30.25;21.23;;;;;;;17.19;nan;95466.50;4987982;28;20216;-73
2022/05/16 04:10:14;;;;;;;29.35;21.20;;;;;;;17.29;nan;95467.69;4987547;28;20236;-73
2022/05/16 04:12:43;;;;;;;14.48;10.80;;;;;;;17.13;nan;95466.81;4985647;28;20219;-71
2022/05/16 04:15:12;;;;;;;14.63;9.77;;;;;;;17.17;nan;95461.44;4986447;28;20653;-74
2022/05/16 04:17:39;;;;;;;9.38;8.32;;;;;;;17.26;nan;95457.56;4987784;28;21056;-72
2022/05/16 04:20:08;;;;;;;9.80;8.68;;;;;;;17.30;nan;95464.22;4986131;28;20283;-74
2022/05/16 04:22:34;;;;;;;8.80;7.95;;;;;;;17.47;nan;95461.56;4984267;28;20200;-71
2022/05/16 04:25:01;;;;;;;8.10;7.55;;;;;;;17.34;nan;95466.50;4987245;28;20204;-73
2022/05/16 04:27:28;;;;;;;13.02;8.30;;;;;;;17.60;nan;95472.81;4986090;28;20220;-71
2022/05/16 04:29:56;;;;;;;15.95;8.80;;;;;;;17.75;nan;95470.38;4986138;28;20294;-72
2022/05/16 04:32:23;;;;;;;23.00;16.85;;;;;;;17.76;nan;95472.03;4985079;28;20200;-74
2022/05/16 04:34:51;;;;;;;13.65;12.15;;;;;;;18.10;nan;95466.63;4987890;28;20205;-73
2022/05/16 04:37:17;;;;;;;12.27;9.73;;;;;;;18.39;nan;95475.28;4987120;28;20221;-72
2022/05/16 04:39:44;;;;;;;8.00;7.18;;;;;;;18.46;nan;95478.31;4986468;28;20240;-73
2022/05/16 04:44:57;;;;;;;9.00;8.15;;;;;;;18.58;nan;95483.56;4987359;28;20873;-71
2022/05/16 04:47:24;;;;;;;9.25;7.97;;;;;;;18.57;nan;95484.50;4985744;28;20243;-72
2022/05/16 04:49:50;;;;;;;9.95;8.88;;;;;;;18.66;nan;95483.16;4985699;28;20199;-72
2022/05/16 04:52:17;;;;;;;12.65;10.27;;;;;;;18.60;nan;95483.53;4987046;28;20228;-72
2022/05/16 04:54:46;;;;;;;13.90;12.43;;;;;;;18.72;nan;95490.53;4985309;28;20648;-71
2022/05/16 04:57:13;;;;;;;14.93;10.15;;;;;;;18.85;nan;95496.59;4986084;28;20291;-73
2022/05/16 04:59:40;;;;;;;9.80;9.10;;;;;;;18.85;nan;95486.31;4985751;28;20242;-71
2022/05/16 05:02:08;;;;;;;9.88;8.88;;;;;;;18.91;nan;95498.84;4984264;28;20678;-72
2022/05/16 05:04:35;;;;;;;15.10;9.63;;;;;;;19.15;nan;95487.97;4984829;28;20204;-72
2022/05/16 05:07:03;;;;;;;14.05;8.82;;;;;;;19.67;nan;95480.47;4984809;28;20203;-74
2022/05/16 05:09:29;;;;;;;9.02;8.32;;;;;;;19.84;nan;95492.31;4984923;28;20204;-72
2022/05/16 05:14:41;;;;;;;8.57;7.97;;;;;;;23.67;nan;95479.81;4985621;28;20259;-72
2022/05/16 05:17:12;;;;;;;9.52;8.63;;;;;;;26.00;nan;95486.34;4985187;28;20267;-72
2022/05/16 05:19:40;;;;;;;7.90;7.20;;;;;;;28.12;nan;95483.25;4985551;28;20569;-73
2022/05/16 05:22:07;;;;;;;8.13;7.47;;;;;;;30.16;nan;95488.84;4983381;28;20207;-72
2022/05/16 05:24:34;;;;;;;7.63;6.50;;;;;;;32.08;nan;95481.00;4985251;28;20684;-73
2022/05/16 05:27:01;;;;;;;8.07;7.30;;;;;;;31.16;nan;95492.19;4984062;28;20946;-72
2022/05/16 05:29:28;;;;;;;11.05;7.65;;;;;;;30.95;nan;95490.84;4984049;28;20236;-72
2022/05/16 05:31:55;;;;;;;8.18;7.55;;;;;;;32.52;nan;95480.41;4985460;28;20235;-73
2022/05/16 05:34:23;;;;;;;8.27;7.45;;;;;;;32.92;nan;95493.25;4985447;28;20662;-73
2022/05/16 05:36:50;;;;;;;9.23;7.10;;;;;;;33.60;nan;95491.47;4989286;28;20208;-73
2022/05/16 05:39:17;;;;;;;9.07;8.25;;;;;;;32.33;nan;95490.41;4988646;28;20278;-72
2022/05/16 05:41:44;;;;;;;8.40;7.43;;;;;;;33.11;nan;95484.88;4985095;28;20289;-73
2022/05/16 05:44:12;;;;;;;9.13;8.25;;;;;;;34.26;nan;95493.06;4983364;28;20212;-72
2022/05/16 05:46:40;;;;;;;10.90;7.97;;;;;;;35.06;nan;95492.84;4984169;28;20207;-73
2022/05/16 05:49:09;;;;;;;9.25;8.35;;;;;;;33.56;nan;95495.44;4984069;28;20201;-72
2022/05/16 05:51:38;;;;;;;9.02;8.32;;;;;;;33.01;nan;95484.28;4983714;28;20230;-74
2022/05/16 05:54:05;;;;;;;12.82;8.50;;;;;;;31.52;nan;95485.50;4984261;28;20208;-72
2022/05/16 05:56:33;;;;;;;10.48;9.48;;;;;;;32.70;nan;95488.81;4985716;28;20197;-73
2022/05/16 05:59:00;;;;;;;14.95;9.48;;;;;;;31.58;nan;95481.38;4984342;28;20204;-77
2022/05/16 06:01:27;;;;;;;10.93;9.35;;;;;;;32.05;nan;95484.00;4984238;28;20204;-73
2022/05/16 06:03:55;;;;;;;12.65;9.52;;;;;;;31.72;nan;95484.13;4986212;28;20204;-73
2022/05/16 06:06:21;;;;;;;9.35;8.48;;;;;;;31.95;nan;95494.72;4984844;28;20200;-73
2022/05/16 06:08:50;;;;;;;9.02;8.27;;;;;;;31.76;nan;95492.50;4985246;28;20224;-73
2022/05/16 06:11:16;;;;;;;11.40;8.38;;;;;;;30.61;nan;95493.69;4984314;28;20275;-73
2022/05/16 06:13:43;;;;;;;9.65;8.70;;;;;;;31.55;nan;95489.59;4983840;28;20193;-74
2022/05/16 06:16:11;;;;;;;8.98;8.23;;;;;;;32.29;nan;95481.25;4984303;28;20204;-73
2022/05/16 06:18:38;;;;;;;13.35;9.70;;;;;;;30.75;nan;95476.44;4984231;28;20212;-74
2022/05/16 06:21:05;;;;;;;9.30;8.50;;;;;;;31.75;nan;95480.34;4983954;28;20204;-73
2022/05/16 06:23:32;;;;;;;10.00;9.02;;;;;;;31.43;nan;95482.09;4983905;28;20287;-74
2022/05/16 06:26:00;;;;;;;9.73;8.88;;;;;;;31.79;nan;95486.91;4985036;28;20210;-72
2022/05/16 06:28:29;;;;;;;10.55;9.52;;;;;;;31.74;nan;95476.91;4983384;28;20541;-75
2022/05/16 06:30:56;;;;;;;10.93;9.52;;;;;;;31.74;nan;95482.16;4983615;28;20243;-74
2022/05/16 06:33:25;;;;;;;10.02;9.30;;;;;;;31.66;nan;95495.34;4983396;28;20211;-73
2022/05/16 06:35:52;;;;;;;11.05;9.95;;;;;;;31.78;nan;95480.84;4983071;28;20259;-75
2022/05/16 06:38:21;;;;;;;15.48;11.15;;;;;;;31.92;nan;95487.19;4984433;28;20633;-74
2022/05/16 06:40:49;;;;;;;14.68;9.20;;;;;;;31.92;nan;95481.13;4984243;28;20330;-74
2022/05/16 06:43:19;;;;;;;13.82;10.07;;;;;;;31.31;nan;95485.25;4984560;28;20221;-74
2022/05/16 06:45:47;;;;;;;17.02;9.13;;;;;;;31.49;nan;95483.22;4983387;28;20259;-74
2022/05/16 06:48:14;;;;;;;12.70;8.75;;;;;;;31.14;nan;95488.91;4981292;28;20724;-71
2022/05/16 06:50:42;;;;;;;10.63;8.80;;;;;;;30.33;nan;95480.03;4983988;28;20205;-74
2022/05/16 06:53:12;;;;;;;11.15;9.40;;;;;;;30.31;nan;95476.75;4983867;28;20213;-74
2022/05/16 06:55:39;;;;;;;13.07;9.65;;;;;;;29.69;nan;95491.16;4982566;28;20679;-75
2022/05/16 06:58:06;;;;;;;16.30;9.52;;;;;;;29.81;nan;95489.03;4983761;28;20204;-74
2022/05/16 07:00:35;;;;;;;13.35;9.70;;;;;;;29.71;nan;95484.75;4983316;28;20212;-76
2022/05/16 07:03:02;;;;;;;11.88;9.55;;;;;;;29.11;nan;95492.63;4983714;28;20212;-74
2022/05/16 07:05:29;;;;;;;13.68;8.80;;;;;;;29.18;nan;95476.31;4983397;28;20217;-75
2022/05/16 07:07:57;;;;;;;10.30;8.82;;;;;;;29.42;nan;95484.31;4983097;28;20599;-73
2022/05/16 07:10:24;;;;;;;15.38;7.45;;;;;;;29.32;nan;95473.09;4982619;28;20680;-74
2022/05/16 07:12:51;;;;;;;10.63;9.40;;;;;;;29.18;nan;95481.53;4983164;28;20295;-74
2022/05/16 07:15:19;;;;;;;10.45;8.25;;;;;;;29.01;nan;95480.59;4983486;28;20319;-74
2022/05/16 07:17:48;;;;;;;11.38;9.55;;;;;;;28.54;nan;95472.22;4983135;28;20228;-74
2022/05/16 07:20:15;;;;;;;13.82;8.75;;;;;;;28.14;nan;95465.63;4982398;28;20671;-73
2022/05/16 07:22:45;;;;;;;11.88;9.07;;;;;;;27.55;nan;95474.75;4983318;28;20258;-73
2022/05/16 07:25:13;;;;;;;11.95;8.30;;;;;;;27.17;nan;95482.75;4983358;28;20403;-74
2022/05/16 07:27:57;;;;;;;16.08;8.27;;;;;;;27.09;nan;95476.44;4981487;28;20200;-75
2022/05/16 07:30:24;;;;;;;14.65;8.93;;;;;;;27.30;nan;95472.81;4982502;28;20235;-74
2022/05/16 07:32:53;;;;;;;11.88;7.50;;;;;;;27.45;nan;95476.59;4982627;28;20255;-73
2022/05/16 07:35:25;;;;;;;8.57;7.75;;;;;;;27.69;nan;95474.31;4982877;28;21456;-74
2022/05/16 07:37:53;;;;;;;7.93;7.30;;;;;;;27.30;nan;95475.41;4982488;28;20664;-74
2022/05/16 07:40:22;;;;;;;10.90;6.80;;;;;;;27.37;nan;95468.66;4982257;28;20679;-73
2022/05/16 07:42:49;;;;;;;8.57;6.38;;;;;;;27.33;nan;95472.53;4984876;28;20216;-73
2022/05/16 07:45:16;;;;;;;9.77;7.25;;;;;;;27.17;nan;95465.31;4983486;28;20908;-73
2022/05/16 07:47:43;;;;;;;13.18;6.50;;;;;;;27.36;nan;95464.41;4982673;28;20200;-75
2022/05/16 07:50:12;;;;;;;11.10;6.22;;;;;;;27.26;nan;95466.22;4983274;28;20292;-73
2022/05/16 07:52:41;;;;;;;10.07;5.68;;;;;;;27.18;nan;95466.13;4982789;28;20225;-74
2022/05/16 07:55:09;;;;;;;7.65;6.70;;;;;;;27.17;nan;95469.72;4982747;28;20213;-74
2022/05/16 07:57:35;;;;;;;7.68;6.20;;;;;;;27.44;nan;95472.34;4982033;28;20716;-74
2022/05/16 08:00:03;;;;;;;9.27;6.65;;;;;;;27.52;nan;95463.78;4983841;28;20208;-74
2022/05/16 08:02:30;;;;;;;12.40;7.28;;;;;;;27.54;nan;95467.88;4982786;28;20255;-73
2022/05/16 08:04:57;;;;;;;11.15;6.95;;;;;;;27.56;nan;95463.34;4982741;28;20204;-76
2022/05/16 08:07:25;;;;;;;12.40;8.43;;;;;;;27.41;nan;95472.63;4981622;28;20207;-74
2022/05/16 08:12:44;;;;;;;8.30;5.97;;;;;;;27.82;nan;95460.06;4946781;28;20240;-74
2022/05/16 08:15:11;;;;;;;5.20;4.80;;;;;;;27.53;nan;95461.03;4980757;28;20588;-75
2022/05/16 08:17:38;;;;;;;16.88;6.30;;;;;;;27.41;nan;95447.34;4980616;28;20747;-75
2022/05/16 08:20:08;;;;;;;13.60;6.57;;;;;;;27.62;nan;95459.38;4981929;28;20212;-76
2022/05/16 08:22:36;;;;;;;9.60;5.10;;;;;;;27.38;nan;95463.31;4980593;28;20207;-76
2022/05/16 08:25:03;;;;;;;5.43;4.68;;;;;;;27.60;nan;95456.09;4983076;28;20224;-74
2022/05/16 08:27:30;;;;;;;14.13;7.50;;;;;;;27.62;nan;95460.19;4980488;28;20204;-75
2022/05/16 08:29:57;;;;;;;16.45;7.75;;;;;;;27.71;nan;95455.91;4977858;28;20595;-73
2022/05/16 08:32:24;;;;;;;12.15;8.63;;;;;;;27.77;nan;95456.09;4979853;28;20850;-74
2022/05/16 08:34:51;;;;;;;6.07;5.32;;;;;;;27.86;nan;95445.75;4985652;28;20208;-74
2022/05/16 08:40:05;;;;;;;4.00;3.40;;;;;;;27.68;nan;95449.19;4983108;28;20282;-71
2022/05/16 08:42:47;;;;;;;13.20;3.13;;;;;;;27.38;nan;95433.78;4985617;28;21252;-71
2022/05/16 08:45:18;;;;;;;7.97;3.22;;;;;;;27.39;nan;95449.28;4985651;28;20200;-73
2022/05/16 08:47:54;;;;;;;4.03;3.35;;;;;;;27.39;nan;95443.25;4985226;28;20347;-72
2022/05/16 08:50:26;;;;;;;5.75;3.30;;;;;;;27.08;nan;95440.91;4985655;28;22511;-71
2022/05/16 08:52:57;;;;;;;5.47;2.60;;;;;;;27.02;nan;95438.84;4985664;28;20737;-72
2022/05/16 08:55:33;;;;;;;4.05;3.13;;;;;;;27.34;nan;95435.84;4984770;28;20211;-72
2022/05/16 08:58:05;;;;;;;8.63;4.32;;;;;;;27.54;nan;95433.94;4984368;28;20266;-72
2022/05/16 09:00:37;;;;;;;3.45;3.25;;;;;;;27.50;nan;95444.81;4983219;28;20205;-71
2022/05/16 09:03:07;;;;;;;5.75;4.05;;;;;;;27.23;nan;95436.00;4984780;28;20220;-74
2022/05/16 09:05:38;;;;;;;4.28;3.72;;;;;;;27.33;nan;95454.25;4984485;28;20209;-73
2022/05/16 09:08:09;;;;;;;6.53;5.93;;;;;;;27.38;nan;95434.59;4982633;28;20215;-71
2022/05/16 09:10:59;;;;;;;14.48;8.80;;;;;;;27.50;nan;95432.59;4985274;28;20196;-71
2022/05/16 09:13:41;;;;;;;7.82;5.53;;;;;;;27.52;nan;95433.28;4984832;28;20236;-73
2022/05/16 09:16:15;;;;;;;10.40;4.70;;;;;;;27.31;nan;95430.09;4985007;28;20207;-70
2022/05/16 09:18:51;;;;;;;6.57;5.95;;;;;;;27.16;nan;95432.34;4983058;28;20208;-71
2022/05/16 09:21:24;;;;;;;6.40;4.82;;;;;;;27.29;nan;95426.78;4986419;28;20200;-70
2022/05/16 09:23:59;;;;;;;3.53;3.22;;;;;;;27.50;nan;95429.97;4985213;28;20609;-71
2022/05/16 09:26:38;;;;;;;4.55;3.58;;;;;;;27.44;nan;95422.75;4984359;28;20691;-70
2022/05/16 09:29:23;;;;;;;7.13;3.83;;;;;;;27.47;nan;95422.44;4996945;28;20730;-71
2022/05/16 09:31:52;;;;;;;5.20;3.85;;;;;;;27.49;nan;95417.91;5000359;28;20236;-72
2022/05/16 09:34:19;;;;;;;6.38;5.28;;;;;;;27.31;nan;95411.81;5016876;28;20195;-71
2022/05/16 09:36:49;;;;;;;12.65;6.38;;;;;;;27.49;nan;95412.69;5026592;28;20730;-71
2022/05/16 09:39:20;;;;;;;7.15;4.88;;;;;;;27.63;nan;95414.84;4989397;28;20767;-73
2022/05/16 09:41:57;;;;;;;4.25;3.88;;;;;;;27.54;nan;95415.69;4985952;28;20511;-71
2022/05/16 09:44:28;;;;;;;12.07;4.05;;;;;;;27.44;nan;95412.31;5006372;28;20273;-72
2022/05/16 09:47:18;;;;;;;3.90;3.60;;;;;;;27.41;nan;95405.59;5005928;28;20192;-72
2022/05/16 09:49:47;;;;;;;8.88;5.20;;;;;;;27.46;nan;95405.16;4987118;28;20713;-72
2022/05/16 09:52:17;;;;;;;5.70;3.05;;;;;;;27.61;nan;95401.09;4988321;28;20350;-73
2022/05/16 09:54:45;;;;;;;5.63;2.20;;;;;;;27.55;nan;95400.84;5007277;28;20200;-72
2022/05/16 09:57:19;;;;;;;4.50;2.92;;;;;;;27.75;nan;95397.97;5006392;28;20664;-73
2022/05/16 09:59:50;;;;;;;3.05;2.85;;;;;;;27.66;nan;95404.09;4988343;28;20672;-74
2022/05/16 10:02:24;;;;;;;4.93;4.05;;;;;;;27.71;nan;95388.81;4988584;28;20207;-73
2022/05/16 10:04:55;;;;;;;3.95;3.65;;;;;;;27.93;nan;95377.09;4988198;28;20197;-74
2022/05/16 10:07:41;;;;;;;5.40;3.03;;;;;;;27.73;nan;95389.47;4990070;28;20203;-74
2022/05/16 10:10:13;;;;;;;3.05;2.70;;;;;;;27.67;nan;95378.81;4990859;28;20198;-74
2022/05/16 10:12:43;;;;;;;2.50;2.00;;;;;;;27.84;nan;95369.34;4995989;28;20731;-73
2022/05/16 10:15:12;;;;;;;3.90;2.13;;;;;;;27.87;nan;95369.03;5010903;28;20208;-72
2022/05/16 10:17:42;;;;;;;3.47;3.17;;;;;;;28.27;nan;95352.91;5005666;28;20201;-72
2022/05/16 10:20:15;;;;;;;4.53;2.17;;;;;;;28.19;nan;95360.66;4991721;28;20284;-72
2022/05/16 10:22:42;;;;;;;11.63;4.50;;;;;;;28.18;nan;95367.69;4992223;28;20212;-74
2022/05/16 10:25:15;;;;;;;4.63;2.78;;;;;;;28.06;nan;95361.88;4991609;28;20193;-71
2022/05/16 10:27:46;;;;;;;3.35;2.85;;;;;;;28.16;nan;95359.16;4991643;28;20247;-73
2022/05/16 10:30:20;;;;;;;5.90;3.97;;;;;;;28.06;nan;95340.97;4991484;28;20237;-72
2022/05/16 10:35:39;;;;;;;4.07;3.17;;;;;;;28.00;nan;95345.97;4991629;28;20204;-69
2022/05/16 10:38:15;;;;;;;5.43;3.63;;;;;;;28.04;nan;95349.91;4991489;28;20201;-73
2022/05/16 10:40:46;;;;;;;2.70;2.30;;;;;;;27.97;nan;95347.06;4991524;28;20195;-72
2022/05/16 10:43:30;;;;;;;2.70;2.40;;;;;;;27.75;nan;95339.69;4991742;28;20224;-73
2022/05/16 10:46:03;;;;;;;2.25;2.15;;;;;;;27.87;nan;95337.69;4991361;28;20199;-71
2022/05/16 10:48:39;;;;;;;2.85;2.40;;;;;;;27.97;nan;95338.41;5003028;28;20706;-73
2022/05/16 10:51:13;;;;;;;2.50;2.20;;;;;;;28.03;nan;95333.41;5010684;28;20722;-73
2022/05/16 10:53:50;;;;;;;5.15;2.55;;;;;;;28.12;nan;95331.69;4996804;28;20342;-72
2022/05/16 10:56:34;;;;;;;2.53;1.50;;;;;;;28.15;nan;95323.56;4991220;28;20292;-72
2022/05/16 10:59:10;;;;;;;2.95;2.33;;;;;;;28.39;nan;95333.41;4991273;28;20205;-72
2022/05/16 11:01:43;;;;;;;3.53;2.30;;;;;;;28.25;nan;95319.06;4991073;28;20308;-73
2022/05/16 11:04:52;;;;;;;3.40;2.35;;;;;;;28.23;nan;95318.41;4991111;28;20668;-72
2022/05/16 11:07:29;;;;;;;4.97;2.22;;;;;;;28.03;nan;95309.09;4969433;28;20204;-71
2022/05/16 11:10:02;;;;;;;6.32;2.80;;;;;;;27.92;nan;95314.56;4969236;28;20256;-71
2022/05/16 11:12:35;;;;;;;5.35;2.53;;;;;;;28.06;nan;95314.00;4986220;28;20232;-72
2022/05/16 11:15:12;;;;;;;2.20;2.00;;;;;;;28.08;nan;95310.28;5010262;28;20251;-73
2022/05/16 11:17:48;;;;;;;2.80;2.17;;;;;;;28.02;nan;95310.06;5004424;28;20599;-72
2022/05/16 11:20:28;;;;;;;2.65;2.05;;;;;;;27.90;nan;95303.44;4990889;28;20251;-72
2022/05/16 11:22:58;;;;;;;3.05;1.70;;;;;;;27.86;nan;95315.16;4990871;28;20255;-72
2022/05/16 11:25:32;;;;;;;2.70;1.95;;;;;;;28.01;nan;95303.19;4990572;28;20201;-70
2022/05/16 11:28:04;;;;;;;2.33;1.80;;;;;;;27.97;nan;95297.44;4992840;28;20251;-72
2022/05/16 11:30:42;;;;;;;2.53;1.80;;;;;;;28.02;nan;95297.00;4992163;28;20276;-71
2022/05/16 11:33:20;;;;;;;5.88;1.90;;;;;;;28.08;nan;95283.31;5000696;28;20331;-72
2022/05/16 11:35:49;;;;;;;1.92;1.77;;;;;;;28.31;nan;95299.34;5010218;28;20200;-73
2022/05/16 11:38:29;;;;;;;7.28;2.17;;;;;;;28.03;nan;95285.56;4999176;28;20208;-71
2022/05/16 11:41:15;;;;;;;6.75;1.92;;;;;;;28.09;nan;95283.19;4990554;28;20193;-72
2022/05/16 11:43:45;;;;;;;3.42;1.92;;;;;;;28.37;nan;95289.09;4990892;28;20588;-73
2022/05/16 11:46:30;;;;;;;1.70;1.60;;;;;;;28.53;nan;95292.78;4990546;28;20687;-70
2022/05/16 11:49:16;;;;;;;6.93;2.00;;;;;;;28.60;nan;95285.94;4990895;28;20219;-71
2022/05/16 11:51:58;;;;;;;3.35;1.80;;;;;;;28.60;nan;95284.16;4989959;28;20267;-72
2022/05/16 11:54:29;;;;;;;4.28;1.70;;;;;;;28.42;nan;95281.63;5009848;28;20236;-70
2022/05/16 12:02:43;;;;;;;2.85;1.90;;;;;;;28.57;nan;95268.78;4990910;28;20296;-71
2022/05/16 12:05:13;;;;;;;5.22;1.75;;;;;;;28.71;nan;95270.78;4990222;28;20197;-70
2022/05/16 12:07:43;;;;;;;1.67;1.50;;;;;;;28.66;nan;95251.34;4995713;28;20196;-72
2022/05/16 12:10:25;;;;;;;1.35;1.30;;;;;;;28.54;nan;95247.34;5009938;28;20668;-71
2022/05/16 12:13:17;;;;;;;4.75;1.38;;;;;;;28.60;nan;95263.25;5002394;28;20224;-70
2022/05/16 12:15:44;;;;;;;2.55;1.65;;;;;;;28.70;nan;95257.91;4993783;28;20624;-70
2022/05/16 12:21:10;;;;;;;2.17;1.58;;;;;;;28.39;24.88;95245.34;5149207;27;20287;-71
2022/05/16 12:23:57;;;;;;;1.58;1.45;;;;;;;28.51;25.00;95237.19;5113477;28;20197;-72
2022/05/16 12:27:01;;;;;;;1.67;1.58;;;;;;;28.58;24.15;95228.59;5107473;28;20204;-73
2022/05/16 12:29:48;;;;;;;1.33;1.23;;;;;;;28.76;23.83;95225.88;5101471;28;20601;-72
2022/05/16 12:32:26;;;;;;;2.15;1.80;;;;;;;28.57;22.41;95226.13;5087462;28;20752;-72